Canones, New Mexico
Current Conditions -  °F | °C
As of 8:15 AM on Friday 31 Oct 2014 (Local Time) from KLAM Reporting Station
Clear Clear  
Wind Chill: 39°   Ceiling: Unl
Heat Index: 44°   Visibility: 10mi
Dew Point: 24°   Wind: 9mph
Humidity: 46%   Direction: 230°SW
Pressure: 30.46"   Gusts: NA
Location:  36.19°N, 106.44°W
Report Text: KLAM 311415Z AUTO 23008KT 10SM CLR 07/M04 A3046 RMK AO2 T00651044
Loading
Personal Weather Stations






























Interactive Weather Map
Tropical Storm Tracking
New forecast layout! Learn more

10-Day Weather Forecast

Advertisements
Track Severe Weather on mobile